createdAt,value
2019-06-11T00:00:06.637Z,934.39
2019-06-11T00:01:06.449Z,934.36
2019-06-11T00:02:17.041Z,934.35
2019-06-11T00:03:03.786Z,934.39
2019-06-11T00:04:03.873Z,934.35
2019-06-11T00:05:03.984Z,934.35
2019-06-11T00:06:04.163Z,934.41
2019-06-11T00:07:03.368Z,934.44
2019-06-11T00:08:04.144Z,934.48
2019-06-11T00:09:03.798Z,934.43
2019-06-11T00:10:06.837Z,934.52
2019-06-11T00:11:04.202Z,934.49
2019-06-11T00:12:03.874Z,934.52
2019-06-11T00:13:03.934Z,934.49
2019-06-11T00:14:04.792Z,934.53
2019-06-11T00:15:03.131Z,934.57
2019-06-11T00:16:04.302Z,934.53
2019-06-11T00:17:03.976Z,934.51
2019-06-11T00:18:04.266Z,934.52
2019-06-11T00:19:03.230Z,934.52
2019-06-11T00:20:04.881Z,934.50
2019-06-11T00:21:04.945Z,934.49
2019-06-11T00:22:03.850Z,934.54
2019-06-11T00:23:03.523Z,934.54
2019-06-11T00:24:03.625Z,934.53
2019-06-11T00:25:04.823Z,934.53
2019-06-11T00:26:03.512Z,934.53
2019-06-11T00:27:04.447Z,934.53
2019-06-11T00:28:03.830Z,934.54
2019-06-11T00:29:03.930Z,934.55
2019-06-11T00:30:05.242Z,934.56
2019-06-11T00:31:04.454Z,934.56
2019-06-11T00:32:03.724Z,934.58
2019-06-11T00:33:03.561Z,934.57
2019-06-11T00:34:04.245Z,934.61
2019-06-11T00:35:03.773Z,934.54
2019-06-11T00:36:04.314Z,934.54
2019-06-11T00:37:03.642Z,934.61
2019-06-11T00:38:03.287Z,934.62
2019-06-11T00:39:04.316Z,934.64
2019-06-11T00:40:05.885Z,934.67
2019-06-11T00:41:03.604Z,934.61
2019-06-11T00:42:03.062Z,934.66
2019-06-11T00:43:04.424Z,934.67
2019-06-11T00:44:06.671Z,934.70
2019-06-11T00:45:03.321Z,934.67
2019-06-11T00:46:03.649Z,934.65
2019-06-11T00:47:03.383Z,934.66
2019-06-11T00:48:03.369Z,934.67
2019-06-11T00:49:03.797Z,934.62
2019-06-11T00:50:01.725Z,934.64
2019-06-11T00:51:01.633Z,934.66
2019-06-11T00:52:03.753Z,934.65
2019-06-11T00:53:03.469Z,934.63
2019-06-11T00:54:03.700Z,934.67
2019-06-11T00:55:04.117Z,934.71
2019-06-11T00:56:02.863Z,934.70
2019-06-11T00:57:04.033Z,934.73
2019-06-11T00:58:03.909Z,934.71
2019-06-11T00:59:03.059Z,934.71
2019-06-11T01:00:02.379Z,934.73
2019-06-11T01:01:03.685Z,934.74
2019-06-11T01:02:02.291Z,934.74
2019-06-11T01:03:02.921Z,934.79
2019-06-11T01:04:02.557Z,934.76
2019-06-11T01:05:03.182Z,934.79
2019-06-11T01:06:00.373Z,934.77
2019-06-11T01:07:00.982Z,934.76
2019-06-11T01:08:01.140Z,934.77
2019-06-11T01:09:01.492Z,934.72
2019-06-11T01:10:01.404Z,934.74
2019-06-11T01:11:01.656Z,934.72
2019-06-11T01:12:03.539Z,934.75
2019-06-11T01:13:01.867Z,934.75
2019-06-11T01:14:03.760Z,934.79
2019-06-11T01:15:02.083Z,934.75
2019-06-11T01:16:02.002Z,934.79
2019-06-11T01:17:02.792Z,934.80
2019-06-11T01:18:03.194Z,934.81
2019-06-11T01:18:59.953Z,934.77
2019-06-11T01:19:59.930Z,934.74
2019-06-11T01:21:03.024Z,934.71
2019-06-11T01:21:59.874Z,934.64
2019-06-11T01:23:02.544Z,934.67
2019-06-11T01:23:59.923Z,934.65
2019-06-11T01:25:02.741Z,934.69
2019-06-11T01:26:00.071Z,934.63
2019-06-11T01:26:59.855Z,934.63
2019-06-11T01:28:02.579Z,934.64
2019-06-11T01:29:00.065Z,934.63
2019-06-11T01:30:00.134Z,934.66
2019-06-11T01:31:00.288Z,934.68
2019-06-11T01:32:00.920Z,934.64
2019-06-11T01:33:04.696Z,934.67
2019-06-11T01:34:01.065Z,934.67
2019-06-11T01:35:01.226Z,934.63
2019-06-11T01:36:00.897Z,934.67
2019-06-11T01:37:00.796Z,934.58
2019-06-11T01:37:59.486Z,934.57
2019-06-11T01:38:59.466Z,934.63
2019-06-11T01:39:59.441Z,934.61
2019-06-11T01:40:59.407Z,934.61
2019-06-11T01:41:59.389Z,934.59
2019-06-11T01:42:59.364Z,934.57
2019-06-11T01:43:59.345Z,934.58
2019-06-11T01:44:59.313Z,934.56
2019-06-11T01:45:59.292Z,934.50
2019-06-11T01:46:59.261Z,934.49
2019-06-11T01:47:59.223Z,934.48
2019-06-11T01:48:59.219Z,934.50
2019-06-11T01:49:59.198Z,934.55
2019-06-11T01:50:59.174Z,934.50
2019-06-11T01:51:59.144Z,934.50
2019-06-11T01:52:59.121Z,934.50
2019-06-11T01:53:59.091Z,934.50
2019-06-11T01:54:59.076Z,934.52
2019-06-11T01:55:59.042Z,934.50
2019-06-11T01:56:59.016Z,934.52
2019-06-11T01:57:59.089Z,934.49
2019-06-11T01:58:58.972Z,934.48
2019-06-11T01:59:58.944Z,934.48
2019-06-11T02:00:58.900Z,934.44
2019-06-11T02:01:58.878Z,934.41
2019-06-11T02:03:16.656Z,934.36
2019-06-11T02:03:58.847Z,934.37
2019-06-11T02:04:58.826Z,934.36
2019-06-11T02:05:58.800Z,934.40
2019-06-11T02:06:58.793Z,934.33
2019-06-11T02:07:58.751Z,934.36
2019-06-11T02:08:58.731Z,934.33
2019-06-11T02:09:58.676Z,934.31
2019-06-11T02:10:58.673Z,934.29
2019-06-11T02:11:58.653Z,934.30
2019-06-11T02:12:58.627Z,934.21
2019-06-11T02:13:58.603Z,934.25
2019-06-11T02:14:58.559Z,934.27
2019-06-11T02:15:58.559Z,934.20
2019-06-11T02:16:58.571Z,934.19
2019-06-11T02:17:58.498Z,934.20
2019-06-11T02:18:58.482Z,934.15
2019-06-11T02:19:58.454Z,934.20
2019-06-11T02:20:58.430Z,934.14
2019-06-11T02:21:58.398Z,934.15
2019-06-11T02:22:58.381Z,934.09
2019-06-11T02:23:58.356Z,934.13
2019-06-11T02:24:58.307Z,934.05
2019-06-11T02:25:58.309Z,934.01
2019-06-11T02:26:58.280Z,934.00
2019-06-11T02:27:58.257Z,934.02
2019-06-11T02:28:58.230Z,934.01
2019-06-11T02:29:58.207Z,934.00
2019-06-11T02:31:02.790Z,933.96
2019-06-11T02:31:58.155Z,933.96
2019-06-11T02:32:58.143Z,933.94
2019-06-11T02:34:25.855Z,933.98
2019-06-11T02:35:07.368Z,933.95
2019-06-11T02:36:02.587Z,933.95
2019-06-11T02:37:01.464Z,933.95
2019-06-11T02:38:02.088Z,933.92
2019-06-11T02:38:57.984Z,933.93
2019-06-11T02:40:01.316Z,933.90
2019-06-11T02:40:57.933Z,933.99
2019-06-11T02:41:57.909Z,933.94
2019-06-11T02:43:00.787Z,933.95
2019-06-11T02:43:57.861Z,934.01
2019-06-11T02:44:57.819Z,933.98
2019-06-11T02:45:57.807Z,933.98
2019-06-11T02:46:57.785Z,933.95
2019-06-11T02:48:01.195Z,933.94
2019-06-11T02:48:57.737Z,933.92
2019-06-11T02:50:01.647Z,933.92
2019-06-11T02:50:57.683Z,933.88
2019-06-11T02:51:57.650Z,933.84
2019-06-11T02:53:00.772Z,933.86
2019-06-11T02:53:57.603Z,933.89
2019-06-11T02:55:01.464Z,933.90
2019-06-11T02:55:57.565Z,933.90
2019-06-11T02:56:57.543Z,933.90
2019-06-11T02:57:57.510Z,933.89
2019-06-11T02:58:57.501Z,933.89
2019-06-11T02:59:57.462Z,933.86
2019-06-11T03:00:57.536Z,933.90
2019-06-11T03:01:57.420Z,933.92
2019-06-11T03:02:57.390Z,933.93
2019-06-11T03:04:19.567Z,933.93
2019-06-11T03:05:04.746Z,933.97
2019-06-11T03:05:57.321Z,933.91
2019-06-11T03:06:57.268Z,933.92
2019-06-11T03:07:57.267Z,933.92
2019-06-11T03:08:57.245Z,933.93
2019-06-11T03:09:57.215Z,933.89
2019-06-11T03:10:57.263Z,933.89
2019-06-11T03:11:57.146Z,933.87
2019-06-11T03:12:57.126Z,933.83
2019-06-11T03:13:57.106Z,933.76
2019-06-11T03:14:57.072Z,933.76
2019-06-11T03:15:57.070Z,933.72
2019-06-11T03:16:57.047Z,933.72
2019-06-11T03:17:57.016Z,933.74
2019-06-11T03:18:56.966Z,933.70
2019-06-11T03:19:56.975Z,933.76
2019-06-11T03:20:56.945Z,933.75
2019-06-11T03:21:56.916Z,933.74
2019-06-11T03:22:56.900Z,933.75
2019-06-11T03:23:56.865Z,933.71
2019-06-11T03:24:56.841Z,933.70
2019-06-11T03:25:56.819Z,933.69
2019-06-11T03:26:56.792Z,933.71
2019-06-11T03:27:56.765Z,933.70
2019-06-11T03:28:56.746Z,933.71
2019-06-11T03:29:56.715Z,933.69
2019-06-11T03:31:42.002Z,933.71
2019-06-11T03:33:32.070Z,933.65
2019-06-11T03:37:27.467Z,933.65
2019-06-11T03:38:20.168Z,933.67
2019-06-11T03:39:15.551Z,933.65
2019-06-11T03:40:04.719Z,933.67
2019-06-11T03:40:56.446Z,933.66
2019-06-11T03:41:56.439Z,933.66
2019-06-11T03:42:56.393Z,933.66
2019-06-11T03:43:56.367Z,933.69
2019-06-11T03:44:56.344Z,933.69
2019-06-11T03:45:56.345Z,933.69
2019-06-11T03:46:56.302Z,933.73
2019-06-11T03:47:56.268Z,933.74
2019-06-11T03:48:56.229Z,933.72
2019-06-11T03:49:56.214Z,933.72
2019-06-11T03:50:56.193Z,933.75
2019-06-11T03:51:56.170Z,933.72
2019-06-11T03:52:56.154Z,933.80
2019-06-11T03:53:56.097Z,933.74
2019-06-11T03:54:56.102Z,933.75
2019-06-11T03:55:56.053Z,933.67
2019-06-11T03:56:56.063Z,933.70
2019-06-11T03:57:57.990Z,933.70
2019-06-11T03:58:55.980Z,933.66
2019-06-11T03:59:55.974Z,933.64
2019-06-11T04:00:56.993Z,933.65
2019-06-11T04:01:55.904Z,933.71
2019-06-11T04:02:55.899Z,933.69
2019-06-11T04:03:55.867Z,933.64
2019-06-11T04:04:55.876Z,933.63
2019-06-11T04:05:55.822Z,933.63
2019-06-11T04:07:11.044Z,933.64
2019-06-11T04:07:56.852Z,933.60
2019-06-11T04:08:55.743Z,933.61
2019-06-11T04:09:55.699Z,933.60
2019-06-11T04:10:55.739Z,933.55
2019-06-11T04:11:55.667Z,933.59
2019-06-11T04:12:56.754Z,933.62
2019-06-11T04:13:55.621Z,933.62
2019-06-11T04:14:55.594Z,933.61
2019-06-11T04:15:55.553Z,933.59
2019-06-11T04:17:10.249Z,933.59
2019-06-11T04:18:00.454Z,933.55
2019-06-11T04:18:55.495Z,933.60
2019-06-11T04:19:55.469Z,933.57
2019-06-11T04:20:55.422Z,933.54
2019-06-11T04:22:31.588Z,933.54
2019-06-11T04:22:55.395Z,933.53
2019-06-11T04:23:55.372Z,933.55
2019-06-11T04:24:55.339Z,933.55
2019-06-11T04:25:55.320Z,933.52
2019-06-11T04:26:55.298Z,933.56
2019-06-11T04:27:55.278Z,933.53
2019-06-11T04:28:55.244Z,933.50
2019-06-11T04:29:55.219Z,933.51
2019-06-11T04:30:55.401Z,933.49
2019-06-11T04:31:55.166Z,933.46
2019-06-11T04:32:55.142Z,933.45
2019-06-11T04:33:55.122Z,933.39
2019-06-11T04:34:55.096Z,933.39
2019-06-11T04:35:55.079Z,933.40
2019-06-11T04:37:15.420Z,933.40
2019-06-11T04:38:06.168Z,933.37
2019-06-11T04:38:55.010Z,933.39
2019-06-11T04:39:54.966Z,933.38
2019-06-11T04:40:55.030Z,933.38
2019-06-11T04:41:54.925Z,933.33
2019-06-11T04:42:54.896Z,933.35
2019-06-11T04:43:54.867Z,933.34
2019-06-11T04:44:54.828Z,933.32
2019-06-11T04:45:54.814Z,933.35
2019-06-11T04:46:54.811Z,933.30
2019-06-11T04:47:54.771Z,933.31
2019-06-11T04:48:54.740Z,933.29
2019-06-11T04:49:54.708Z,933.31
2019-06-11T04:50:54.848Z,933.31
2019-06-11T04:51:54.659Z,933.31
2019-06-11T04:52:54.635Z,933.28
2019-06-11T04:53:54.611Z,933.29
2019-06-11T04:54:54.599Z,933.26
2019-06-11T04:55:54.568Z,933.21
2019-06-11T04:56:54.545Z,933.23
2019-06-11T04:57:54.518Z,933.23
2019-06-11T04:58:54.488Z,933.23
2019-06-11T04:59:54.463Z,933.25
2019-06-11T05:05:04.509Z,933.22
2019-06-11T05:05:54.316Z,933.18
2019-06-11T05:06:54.287Z,933.19
2019-06-11T05:08:05.220Z,933.17
2019-06-11T05:08:54.214Z,933.16
2019-06-11T05:09:54.209Z,933.17
2019-06-11T05:10:54.182Z,933.16
2019-06-11T05:11:54.163Z,933.15
2019-06-11T05:12:54.138Z,933.10
2019-06-11T05:14:11.343Z,933.13
2019-06-11T05:14:57.332Z,933.10
2019-06-11T05:15:54.064Z,933.11
2019-06-11T05:16:54.034Z,933.04
2019-06-11T05:17:54.000Z,933.04
2019-06-11T05:18:53.979Z,933.01
2019-06-11T05:19:53.976Z,932.98
2019-06-11T05:20:54.001Z,933.01
2019-06-11T05:21:53.936Z,932.99
2019-06-11T05:22:53.877Z,932.97
2019-06-11T05:23:53.858Z,932.98
2019-06-11T05:24:53.824Z,932.99
2019-06-11T05:26:03.831Z,933.01
2019-06-11T05:26:53.785Z,932.95
2019-06-11T05:27:53.751Z,933.02
2019-06-11T05:28:53.746Z,932.98
2019-06-11T05:29:53.699Z,932.98
2019-06-11T05:30:53.661Z,932.99
2019-06-11T05:31:53.646Z,932.96
2019-06-11T05:32:53.620Z,932.93
2019-06-11T05:33:53.600Z,933.01
2019-06-11T05:34:53.572Z,932.98
2019-06-11T05:35:53.553Z,932.99
2019-06-11T05:36:53.522Z,932.96
2019-06-11T05:38:08.991Z,932.97
2019-06-11T05:38:54.931Z,933.01
2019-06-11T05:39:53.427Z,932.98
2019-06-11T05:40:53.426Z,933.01
2019-06-11T05:41:53.378Z,933.03
2019-06-11T05:42:53.370Z,933.01
2019-06-11T05:43:53.345Z,933.05
2019-06-11T05:44:53.319Z,933.00
2019-06-11T05:45:53.290Z,933.00
2019-06-11T05:46:53.273Z,933.03
2019-06-11T05:47:53.239Z,933.00
2019-06-11T05:48:53.221Z,933.02
2019-06-11T05:49:53.187Z,933.02
2019-06-11T05:50:53.161Z,933.02
2019-06-11T05:51:53.141Z,933.03
2019-06-11T05:52:53.114Z,933.01
2019-06-11T05:53:53.090Z,932.98
2019-06-11T05:54:53.050Z,932.95
2019-06-11T05:55:53.034Z,932.95
2019-06-11T05:56:53.010Z,932.88
2019-06-11T05:57:52.986Z,932.93
2019-06-11T05:58:52.959Z,932.91
2019-06-11T05:59:52.935Z,932.83
2019-06-11T06:00:56.644Z,932.87
2019-06-11T06:02:00.578Z,932.87
2019-06-11T06:02:52.839Z,932.89
2019-06-11T06:03:52.830Z,932.82
2019-06-11T06:04:52.785Z,932.84
2019-06-11T06:05:52.782Z,932.85
2019-06-11T06:06:52.757Z,932.91
2019-06-11T06:07:52.710Z,932.85
2019-06-11T06:08:52.714Z,932.82
2019-06-11T06:09:52.676Z,932.85
2019-06-11T06:10:52.724Z,932.87
2019-06-11T06:11:52.629Z,932.86
2019-06-11T06:12:52.606Z,932.84
2019-06-11T06:13:52.581Z,932.84
2019-06-11T06:14:52.548Z,932.84
2019-06-11T06:15:52.522Z,932.81
2019-06-11T06:16:52.499Z,932.82
2019-06-11T06:17:52.472Z,932.82
2019-06-11T06:18:52.446Z,932.82
2019-06-11T06:19:52.422Z,932.84
2019-06-11T06:20:52.401Z,932.81
2019-06-11T06:21:52.367Z,932.84
2019-06-11T06:22:52.336Z,932.83
2019-06-11T06:23:52.321Z,932.85
2019-06-11T06:24:52.293Z,932.83
2019-06-11T06:25:52.257Z,932.87
2019-06-11T06:26:52.237Z,932.86
2019-06-11T06:27:52.197Z,932.85
2019-06-11T06:28:52.247Z,932.83
2019-06-11T06:29:52.159Z,932.80
2019-06-11T06:30:52.131Z,932.84
2019-06-11T06:31:52.104Z,932.79
2019-06-11T06:32:52.069Z,932.80
2019-06-11T06:33:52.060Z,932.80
2019-06-11T06:35:51.981Z,932.79
2019-06-11T06:36:51.959Z,932.79
2019-06-11T06:37:51.953Z,932.79
2019-06-11T06:38:52.646Z,932.78
2019-06-11T06:39:51.897Z,932.73
2019-06-11T06:40:51.876Z,932.80
2019-06-11T06:41:51.848Z,932.79
2019-06-11T06:42:51.818Z,932.78
2019-06-11T06:43:51.791Z,932.81
2019-06-11T06:44:51.963Z,932.80
2019-06-11T06:45:51.739Z,932.81
2019-06-11T06:46:51.697Z,932.83
2019-06-11T06:47:51.672Z,932.88
2019-06-11T06:48:51.669Z,932.86
2019-06-11T06:49:51.625Z,932.85
2019-06-11T06:50:51.619Z,932.89
2019-06-11T06:51:51.587Z,932.90
2019-06-11T06:52:52.199Z,932.93
2019-06-11T06:53:51.540Z,932.97
2019-06-11T06:54:51.492Z,932.93
2019-06-11T06:55:51.490Z,932.93
2019-06-11T06:56:51.465Z,933.01
2019-06-11T06:57:51.412Z,932.97
2019-06-11T06:58:51.413Z,933.00
2019-06-11T06:59:51.407Z,933.04
2019-06-11T07:00:51.353Z,932.99
2019-06-11T07:01:51.351Z,933.01
2019-06-11T07:02:51.302Z,933.03
2019-06-11T07:03:52.339Z,932.93
2019-06-11T07:04:51.249Z,932.93
2019-06-11T07:05:51.223Z,932.92
2019-06-11T07:06:51.198Z,932.97
2019-06-11T07:07:51.569Z,932.93
2019-06-11T07:09:04.466Z,932.99
2019-06-11T07:09:52.282Z,932.95
2019-06-11T07:10:51.248Z,933.03
2019-06-11T07:11:51.384Z,933.02
2019-06-11T07:12:51.037Z,933.06
2019-06-11T07:13:51.516Z,933.05
2019-06-11T07:14:50.991Z,933.07
2019-06-11T07:15:51.359Z,933.04
2019-06-11T07:17:02.982Z,933.11
2019-06-11T07:17:51.619Z,933.12
2019-06-11T07:18:55.118Z,933.16
2019-06-11T07:19:51.307Z,933.16
2019-06-11T07:20:51.416Z,933.13
2019-06-11T07:21:51.765Z,933.23
2019-06-11T07:22:51.019Z,933.18
2019-06-11T07:23:52.176Z,933.14
2019-06-11T07:24:51.113Z,933.20
2019-06-11T07:25:51.130Z,933.19
2019-06-11T07:26:51.319Z,933.21
2019-06-11T07:27:51.560Z,933.13
2019-06-11T07:28:50.968Z,933.20
2019-06-11T07:29:51.158Z,933.15
2019-06-11T07:30:51.169Z,933.13
2019-06-11T07:31:51.182Z,933.14
2019-06-11T07:32:51.769Z,933.15
2019-06-11T07:33:51.252Z,933.15
2019-06-11T07:34:52.265Z,933.15
2019-06-11T07:35:51.016Z,933.17
2019-06-11T07:36:51.154Z,933.19
2019-06-11T07:37:50.991Z,933.21
2019-06-11T07:39:14.668Z,933.16
2019-06-11T07:39:51.383Z,933.15
2019-06-11T07:40:50.613Z,933.20
2019-06-11T07:41:51.662Z,933.20
2019-06-11T07:42:50.935Z,933.24
2019-06-11T07:43:52.393Z,933.25
2019-06-11T07:44:50.923Z,933.23
2019-06-11T07:45:51.999Z,933.22
2019-06-11T07:46:57.591Z,933.22
2019-06-11T07:47:51.662Z,933.20
2019-06-11T07:48:59.216Z,933.26
2019-06-11T07:49:51.248Z,933.28
2019-06-11T07:50:52.454Z,933.24
2019-06-11T07:51:52.627Z,933.20
2019-06-11T07:52:51.716Z,933.21
2019-06-11T07:53:51.961Z,933.24
2019-06-11T07:54:51.971Z,933.26
2019-06-11T07:55:51.406Z,933.26
2019-06-11T07:56:53.583Z,933.23
2019-06-11T07:58:52.081Z,933.28
2019-06-11T07:59:51.538Z,933.32
2019-06-11T08:00:55.106Z,933.30
2019-06-11T08:01:54.197Z,933.30
2019-06-11T08:02:52.376Z,933.31
2019-06-11T08:03:50.835Z,933.28
2019-06-11T08:04:53.327Z,933.28
2019-06-11T08:05:55.757Z,933.29
2019-06-11T08:06:55.629Z,933.31
2019-06-11T08:07:56.462Z,933.31
2019-06-11T08:08:54.922Z,933.29
2019-06-11T08:10:12.451Z,933.27
2019-06-11T08:10:59.634Z,933.21
2019-06-11T08:11:55.171Z,933.20
2019-06-11T08:13:01.398Z,933.24
2019-06-11T08:14:07.930Z,933.29
2019-06-11T08:14:55.111Z,933.27
2019-06-11T08:16:03.613Z,933.28
2019-06-11T08:16:53.247Z,933.19
2019-06-11T08:17:56.247Z,933.26
2019-06-11T08:19:01.607Z,933.21
2019-06-11T08:22:08.983Z,933.31
2019-06-11T08:23:02.578Z,933.32
2019-06-11T08:24:01.179Z,933.37
2019-06-11T08:24:58.605Z,933.38
2019-06-11T08:26:27.638Z,933.25
2019-06-11T08:26:47.439Z,933.20
2019-06-11T08:27:00.518Z,933.23
2019-06-11T08:27:21.643Z,933.39
2019-06-11T08:27:28.933Z,933.41
2019-06-11T08:28:06.777Z,933.36
2019-06-11T08:28:51.078Z,933.32
2019-06-11T08:29:51.405Z,933.35
2019-06-11T08:30:51.141Z,933.34
2019-06-11T08:31:50.163Z,933.35
2019-06-11T08:32:51.885Z,933.39
2019-06-11T08:34:00.510Z,933.40
2019-06-11T08:34:51.024Z,933.41
2019-06-11T08:35:50.519Z,933.40
2019-06-11T08:36:50.813Z,933.40
2019-06-11T08:37:51.027Z,933.43
2019-06-11T08:38:50.783Z,933.41
2019-06-11T08:40:08.172Z,933.43
2019-06-11T08:40:50.869Z,933.50
2019-06-11T08:41:51.205Z,933.52
2019-06-11T08:42:51.213Z,933.54
2019-06-11T08:43:50.490Z,933.57
2019-06-11T08:45:05.135Z,933.57
2019-06-11T08:45:50.679Z,933.62
2019-06-11T08:46:50.983Z,933.59
2019-06-11T08:47:50.623Z,933.63
2019-06-11T08:48:51.604Z,933.66
2019-06-11T08:49:51.239Z,933.65
2019-06-11T08:50:52.035Z,933.63
2019-06-11T08:51:50.771Z,933.64
2019-06-11T08:52:50.401Z,933.67
2019-06-11T08:53:50.908Z,933.68
2019-06-11T08:54:48.399Z,933.71
2019-06-11T08:55:50.487Z,933.72
2019-06-11T08:56:48.344Z,933.74
2019-06-11T08:57:52.644Z,933.78
2019-06-11T08:58:50.368Z,933.76
2019-06-11T09:00:06.093Z,933.79
2019-06-11T09:01:04.277Z,933.76
2019-06-11T09:01:49.368Z,933.81
2019-06-11T09:02:52.078Z,933.83
2019-06-11T09:03:51.011Z,933.81
2019-06-11T09:04:52.359Z,933.83
2019-06-11T09:05:51.904Z,933.88
2019-06-11T09:06:51.046Z,933.88
2019-06-11T09:07:49.505Z,933.89
2019-06-11T09:08:50.166Z,933.92
2019-06-11T09:09:50.475Z,933.89
2019-06-11T09:10:49.226Z,933.91
2019-06-11T09:11:49.461Z,933.84
2019-06-11T09:12:49.475Z,933.90
2019-06-11T09:13:53.601Z,933.91
2019-06-11T09:14:51.345Z,933.86
2019-06-11T09:15:49.476Z,933.89
2019-06-11T09:16:54.155Z,933.92
2019-06-11T09:17:50.104Z,933.94
2019-06-11T09:18:54.681Z,933.99
2019-06-11T09:19:49.283Z,933.99
2019-06-11T09:20:54.342Z,934.02
2019-06-11T09:21:50.755Z,933.96
2019-06-11T09:22:49.795Z,933.99
2019-06-11T09:23:49.422Z,934.06
2019-06-11T09:24:51.348Z,934.07
2019-06-11T09:25:53.122Z,934.07
2019-06-11T09:26:49.335Z,934.05
2019-06-11T09:27:49.200Z,934.10
2019-06-11T09:28:49.224Z,934.18
2019-06-11T09:29:51.423Z,934.14
2019-06-11T09:30:48.267Z,934.19
2019-06-11T09:31:52.524Z,934.20
2019-06-11T09:32:48.647Z,934.15
2019-06-11T09:33:48.841Z,934.14
2019-06-11T09:34:48.686Z,934.17
2019-06-11T09:35:48.753Z,934.13
2019-06-11T09:36:49.295Z,934.13
2019-06-11T09:37:48.572Z,934.08
2019-06-11T09:38:47.342Z,934.09
2019-06-11T09:39:49.105Z,934.02
2019-06-11T09:40:57.511Z,934.06
2019-06-11T09:41:47.285Z,934.08
2019-06-11T09:42:47.461Z,934.03
2019-06-11T09:43:49.304Z,934.04
2019-06-11T09:44:47.198Z,934.06
2019-06-11T09:45:50.243Z,934.08
2019-06-11T09:46:49.250Z,934.14
2019-06-11T09:47:55.913Z,934.14
2019-06-11T09:48:48.662Z,934.15
2019-06-11T09:49:49.318Z,934.17
2019-06-11T09:50:49.892Z,934.17
2019-06-11T09:51:47.766Z,934.18
2019-06-11T09:52:47.908Z,934.19
2019-06-11T09:53:47.970Z,934.21
2019-06-11T09:54:47.566Z,934.20
2019-06-11T09:55:47.975Z,934.21
2019-06-11T09:56:47.653Z,934.19
2019-06-11T09:57:52.631Z,934.20
2019-06-11T09:58:46.774Z,934.17
2019-06-11T09:59:47.506Z,934.19
2019-06-11T10:00:47.486Z,934.22
2019-06-11T10:01:48.055Z,934.21
2019-06-11T10:02:47.627Z,934.25
2019-06-11T10:03:48.168Z,934.27
2019-06-11T10:04:48.408Z,934.26
2019-06-11T10:05:47.888Z,934.28
2019-06-11T10:06:47.812Z,934.27
2019-06-11T10:07:47.996Z,934.27
2019-06-11T10:08:46.518Z,934.26
2019-06-11T10:09:46.516Z,934.28
2019-06-11T10:11:14.322Z,934.27
2019-06-11T10:11:53.332Z,934.24
2019-06-11T10:12:47.031Z,934.27
2019-06-11T10:13:46.567Z,934.24
2019-06-11T10:14:46.391Z,934.30
2019-06-11T10:15:47.901Z,934.32
2019-06-11T10:16:46.397Z,934.33
2019-06-11T10:17:46.623Z,934.30
2019-06-11T10:18:46.736Z,934.33
2019-06-11T10:19:46.594Z,934.35
2019-06-11T10:20:46.765Z,934.31
2019-06-11T10:21:46.799Z,934.39
2019-06-11T10:22:46.974Z,934.39
2019-06-11T10:23:46.927Z,934.41
2019-06-11T10:24:46.971Z,934.40
2019-06-11T10:25:47.126Z,934.46
2019-06-11T10:26:47.346Z,934.46
2019-06-11T10:27:47.164Z,934.44
2019-06-11T10:28:47.213Z,934.41
2019-06-11T10:29:47.278Z,934.44
2019-06-11T10:30:45.974Z,934.45
2019-06-11T10:31:45.956Z,934.43
2019-06-11T10:32:45.928Z,934.47
2019-06-11T10:33:45.900Z,934.52
2019-06-11T10:34:45.878Z,934.52
2019-06-11T10:35:45.852Z,934.52
2019-06-11T10:36:45.812Z,934.52
2019-06-11T10:37:45.820Z,934.55
2019-06-11T10:38:46.008Z,934.56
2019-06-11T10:39:45.907Z,934.55
2019-06-11T10:40:46.193Z,934.55
2019-06-11T10:41:55.285Z,934.60
2019-06-11T10:42:48.436Z,934.62
2019-06-11T10:43:46.230Z,934.66
2019-06-11T10:44:46.280Z,934.68
2019-06-11T10:45:46.369Z,934.70
2019-06-11T10:46:46.554Z,934.66
2019-06-11T10:47:46.476Z,934.70
2019-06-11T10:48:46.767Z,934.74
2019-06-11T10:49:46.823Z,934.78
2019-06-11T10:50:46.627Z,934.76
2019-06-11T10:51:46.694Z,934.82
2019-06-11T10:52:45.903Z,934.75
2019-06-11T10:53:46.747Z,934.78
2019-06-11T10:54:45.377Z,934.84
2019-06-11T10:55:45.333Z,934.91
2019-06-11T10:56:45.320Z,934.91
2019-06-11T10:57:45.683Z,934.95
2019-06-11T10:58:45.278Z,934.91
2019-06-11T11:00:45.273Z,934.89
2019-06-11T11:01:45.822Z,934.93
2019-06-11T11:02:45.206Z,934.85
2019-06-11T11:03:45.232Z,934.89
2019-06-11T11:04:45.122Z,934.93
2019-06-11T11:05:45.242Z,934.95
2019-06-11T11:06:46.227Z,934.95
2019-06-11T11:07:45.335Z,934.97
2019-06-11T11:08:45.638Z,935.00
2019-06-11T11:09:45.383Z,934.97
2019-06-11T11:10:45.609Z,935.01
2019-06-11T11:11:46.268Z,935.00
2019-06-11T11:12:45.816Z,935.02
2019-06-11T11:13:45.513Z,935.02
2019-06-11T11:14:45.450Z,934.98
2019-06-11T11:15:45.504Z,934.98
2019-06-11T11:16:45.450Z,935.02
2019-06-11T11:17:45.772Z,935.02
2019-06-11T11:18:45.482Z,935.00
2019-06-11T11:19:45.462Z,935.02
2019-06-11T11:20:44.718Z,934.98
2019-06-11T11:21:45.930Z,935.02
2019-06-11T11:22:45.765Z,935.03
2019-06-11T11:23:45.913Z,935.05
2019-06-11T11:24:45.869Z,935.08
2019-06-11T11:25:46.234Z,935.11
2019-06-11T11:26:45.954Z,935.11
2019-06-11T11:27:58.332Z,935.13
2019-06-11T11:28:44.543Z,935.12
2019-06-11T11:29:44.525Z,935.19
2019-06-11T11:30:44.478Z,935.21
2019-06-11T11:31:44.468Z,935.22
2019-06-11T11:32:44.449Z,935.26
2019-06-11T11:33:44.423Z,935.27
2019-06-11T11:34:44.396Z,935.30
2019-06-11T11:35:44.376Z,935.29
2019-06-11T11:36:44.359Z,935.33
2019-06-11T11:37:44.310Z,935.34
2019-06-11T11:38:44.312Z,935.36
2019-06-11T11:39:44.799Z,935.31
2019-06-11T11:40:44.246Z,935.29
2019-06-11T11:41:44.237Z,935.33
2019-06-11T11:42:44.216Z,935.36
2019-06-11T11:43:44.194Z,935.44
2019-06-11T11:44:44.179Z,935.48
2019-06-11T11:45:44.155Z,935.47
2019-06-11T11:46:44.129Z,935.36
2019-06-11T11:47:44.091Z,935.35
2019-06-11T11:48:44.590Z,935.44
2019-06-11T11:49:44.041Z,935.51
2019-06-11T11:50:44.037Z,935.63
2019-06-11T11:51:44.012Z,935.75
2019-06-11T11:52:43.993Z,935.72
2019-06-11T11:53:43.978Z,935.70
2019-06-11T11:54:43.951Z,935.69
2019-06-11T11:55:43.945Z,935.62
2019-06-11T11:56:43.913Z,935.63
2019-06-11T11:57:43.876Z,935.66
2019-06-11T11:58:44.282Z,935.66
2019-06-11T11:59:45.851Z,935.65
2019-06-11T12:00:43.811Z,935.72
2019-06-11T12:01:43.801Z,935.77
2019-06-11T12:02:43.791Z,935.78
2019-06-11T12:03:43.771Z,935.77
2019-06-11T12:04:43.751Z,935.77
2019-06-11T12:05:43.728Z,935.79
2019-06-11T12:06:43.714Z,935.81
2019-06-11T12:07:43.680Z,935.70
2019-06-11T12:08:43.674Z,935.79
2019-06-11T12:09:43.657Z,935.75
2019-06-11T12:10:43.633Z,935.73
2019-06-11T12:11:43.639Z,935.73
2019-06-11T12:12:49.029Z,935.74
2019-06-11T12:13:43.586Z,935.77
2019-06-11T12:14:43.569Z,935.73
2019-06-11T12:15:43.550Z,935.70
2019-06-11T12:16:43.634Z,935.73
2019-06-11T12:17:43.505Z,935.75
2019-06-11T12:18:56.949Z,935.74
2019-06-11T12:19:43.463Z,935.73
2019-06-11T12:20:43.449Z,935.73
2019-06-11T12:21:43.601Z,935.73
2019-06-11T12:22:43.414Z,935.76
2019-06-11T12:23:43.390Z,935.72
2019-06-11T12:24:45.096Z,935.75
2019-06-11T12:25:43.361Z,935.68
2019-06-11T12:26:43.338Z,935.69
2019-06-11T12:27:43.324Z,935.67
2019-06-11T12:28:43.304Z,935.71
2019-06-11T12:29:43.288Z,935.71
2019-06-11T12:30:43.265Z,935.71
2019-06-11T12:31:43.262Z,935.67
2019-06-11T12:32:43.230Z,935.73
2019-06-11T12:33:43.206Z,935.73
2019-06-11T12:34:44.906Z,935.62
2019-06-11T12:35:43.174Z,935.70
2019-06-11T12:36:43.155Z,935.64
2019-06-11T12:37:43.152Z,935.65